sensor_id;sensor_type;location;lat;lon;timestamp;temperature;humidity
46319;DHT22;32042;50.916;2.926;2023-04-03T00:02:17;3.10;99.90
46319;DHT22;32042;50.916;2.926;2023-04-03T00:04:43;3.20;99.90
46319;DHT22;32042;50.916;2.926;2023-04-03T00:07:08;3.20;99.90
46319;DHT22;32042;50.916;2.926;2023-04-03T00:09:34;3.20;99.90
46319;DHT22;32042;50.916;2.926;2023-04-03T00:11:59;3.20;99.90
46319;DHT22;32042;50.916;2.926;2023-04-03T00:14:25;3.20;99.90
46319;DHT22;32042;50.916;2.926;2023-04-03T00:16:52;3.30;99.90
46319;DHT22;32042;50.916;2.926;2023-04-03T00:19:18;3.30;99.90
46319;DHT22;32042;50.916;2.926;2023-04-03T00:21:44;3.30;99.90
46319;DHT22;32042;50.916;2.926;2023-04-03T00:24:10;3.30;99.90
46319;DHT22;32042;50.916;2.926;2023-04-03T00:26:35;3.30;99.90
46319;DHT22;32042;50.916;2.926;2023-04-03T00:29:01;3.30;99.90
46319;DHT22;32042;50.916;2.926;2023-04-03T00:31:26;3.30;99.90
46319;DHT22;32042;50.916;2.926;2023-04-03T00:33:52;3.20;99.90
46319;DHT22;32042;50.916;2.926;2023-04-03T00:36:18;3.10;99.90
46319;DHT22;32042;50.916;2.926;2023-04-03T00:38:43;3.10;99.90
46319;DHT22;32042;50.916;2.926;2023-04-03T00:41:09;3.10;99.90
46319;DHT22;32042;50.916;2.926;2023-04-03T00:43:35;3.10;99.90
46319;DHT22;32042;50.916;2.926;2023-04-03T00:46:01;3.10;99.90
46319;DHT22;32042;50.916;2.926;2023-04-03T00:48:45;3.10;99.90
46319;DHT22;32042;50.916;2.926;2023-04-03T00:51:15;3.10;99.90
46319;DHT22;32042;50.916;2.926;2023-04-03T00:53:49;3.10;99.90
46319;DHT22;32042;50.916;2.926;2023-04-03T00:56:18;3.10;99.90
46319;DHT22;32042;50.916;2.926;2023-04-03T00:58:58;3.10;99.90
46319;DHT22;32042;50.916;2.926;2023-04-03T01:01:27;3.10;99.90
46319;DHT22;32042;50.916;2.926;2023-04-03T01:03:53;3.10;99.90
46319;DHT22;32042;50.916;2.926;2023-04-03T01:06:23;3.20;99.90
46319;DHT22;32042;50.916;2.926;2023-04-03T01:08:51;3.20;99.90
46319;DHT22;32042;50.916;2.926;2023-04-03T01:11:17;3.20;99.90
46319;DHT22;32042;50.916;2.926;2023-04-03T01:13:43;3.20;99.90
46319;DHT22;32042;50.916;2.926;2023-04-03T01:16:09;3.20;99.90
46319;DHT22;32042;50.916;2.926;2023-04-03T01:18:37;3.20;99.90
46319;DHT22;32042;50.916;2.926;2023-04-03T01:23:58;3.20;99.90
46319;DHT22;32042;50.916;2.926;2023-04-03T01:26:25;3.20;99.90
46319;DHT22;32042;50.916;2.926;2023-04-03T01:28:53;3.20;99.90
46319;DHT22;32042;50.916;2.926;2023-04-03T01:33:45;3.10;99.90
46319;DHT22;32042;50.916;2.926;2023-04-03T01:36:16;3.10;99.90
46319;DHT22;32042;50.916;2.926;2023-04-03T01:38:43;3.10;99.90
46319;DHT22;32042;50.916;2.926;2023-04-03T01:41:08;3.10;99.90
46319;DHT22;32042;50.916;2.926;2023-04-03T01:43:34;3.10;99.90
46319;DHT22;32042;50.916;2.926;2023-04-03T01:46:00;3.10;99.90
46319;DHT22;32042;50.916;2.926;2023-04-03T01:48:26;3.10;99.90
46319;DHT22;32042;50.916;2.926;2023-04-03T01:50:51;3.10;99.90
46319;DHT22;32042;50.916;2.926;2023-04-03T01:53:17;3.10;99.90
46319;DHT22;32042;50.916;2.926;2023-04-03T01:55:43;3.10;99.90
46319;DHT22;32042;50.916;2.926;2023-04-03T01:58:08;3.10;99.90
46319;DHT22;32042;50.916;2.926;2023-04-03T02:00:34;3.00;99.90
46319;DHT22;32042;50.916;2.926;2023-04-03T02:03:00;3.00;99.90
46319;DHT22;32042;50.916;2.926;2023-04-03T02:05:25;3.00;99.90
46319;DHT22;32042;50.916;2.926;2023-04-03T02:07:51;3.00;99.90
46319;DHT22;32042;50.916;2.926;2023-04-03T02:10:17;3.10;99.90
46319;DHT22;32042;50.916;2.926;2023-04-03T02:12:43;3.10;99.90
46319;DHT22;32042;50.916;2.926;2023-04-03T02:15:09;3.10;99.90
46319;DHT22;32042;50.916;2.926;2023-04-03T02:17:35;3.10;99.90
46319;DHT22;32042;50.916;2.926;2023-04-03T02:20:01;3.10;99.90
46319;DHT22;32042;50.916;2.926;2023-04-03T02:22:26;3.00;99.90
46319;DHT22;32042;50.916;2.926;2023-04-03T02:24:52;3.10;99.90
46319;DHT22;32042;50.916;2.926;2023-04-03T02:27:18;3.00;99.90
46319;DHT22;32042;50.916;2.926;2023-04-03T02:29:43;3.00;99.90
46319;DHT22;32042;50.916;2.926;2023-04-03T02:32:10;3.00;99.90
46319;DHT22;32042;50.916;2.926;2023-04-03T02:34:37;3.00;99.90
46319;DHT22;32042;50.916;2.926;2023-04-03T02:37:03;2.90;99.90
46319;DHT22;32042;50.916;2.926;2023-04-03T02:39:30;2.90;99.90
46319;DHT22;32042;50.916;2.926;2023-04-03T02:41:56;2.80;99.90
46319;DHT22;32042;50.916;2.926;2023-04-03T02:44:22;2.70;99.90
46319;DHT22;32042;50.916;2.926;2023-04-03T02:46:50;2.70;99.90
46319;DHT22;32042;50.916;2.926;2023-04-03T02:49:17;2.70;99.90
46319;DHT22;32042;50.916;2.926;2023-04-03T02:51:43;2.70;99.90
46319;DHT22;32042;50.916;2.926;2023-04-03T02:54:09;2.70;99.90
46319;DHT22;32042;50.916;2.926;2023-04-03T02:56:35;2.70;99.90
46319;DHT22;32042;50.916;2.926;2023-04-03T02:59:01;2.70;99.90
46319;DHT22;32042;50.916;2.926;2023-04-03T03:01:27;2.70;99.90
46319;DHT22;32042;50.916;2.926;2023-04-03T03:03:57;2.70;99.90
46319;DHT22;32042;50.916;2.926;2023-04-03T03:06:23;2.70;99.90
46319;DHT22;32042;50.916;2.926;2023-04-03T03:08:49;2.70;99.90
46319;DHT22;32042;50.916;2.926;2023-04-03T03:11:14;2.70;99.90
46319;DHT22;32042;50.916;2.926;2023-04-03T03:13:40;2.70;99.90
46319;DHT22;32042;50.916;2.926;2023-04-03T03:16:06;2.70;99.90
46319;DHT22;32042;50.916;2.926;2023-04-03T03:18:32;2.70;99.90
46319;DHT22;32042;50.916;2.926;2023-04-03T03:21:00;2.70;99.90
46319;DHT22;32042;50.916;2.926;2023-04-03T03:23:28;2.70;99.90
46319;DHT22;32042;50.916;2.926;2023-04-03T03:26:02;2.70;99.90
46319;DHT22;32042;50.916;2.926;2023-04-03T03:28:28;2.60;99.90
46319;DHT22;32042;50.916;2.926;2023-04-03T03:30:54;2.70;99.90
46319;DHT22;32042;50.916;2.926;2023-04-03T03:33:20;2.70;99.90
46319;DHT22;32042;50.916;2.926;2023-04-03T03:35:46;2.60;99.90
46319;DHT22;32042;50.916;2.926;2023-04-03T03:38:12;2.60;99.90
46319;DHT22;32042;50.916;2.926;2023-04-03T03:40:37;2.60;99.90
46319;DHT22;32042;50.916;2.926;2023-04-03T03:43:03;2.60;99.90
46319;DHT22;32042;50.916;2.926;2023-04-03T03:45:29;2.50;99.90
46319;DHT22;32042;50.916;2.926;2023-04-03T03:47:55;2.50;99.90
46319;DHT22;32042;50.916;2.926;2023-04-03T03:50:20;2.50;99.90
46319;DHT22;32042;50.916;2.926;2023-04-03T03:52:46;2.50;99.90
46319;DHT22;32042;50.916;2.926;2023-04-03T03:55:12;2.60;99.90
46319;DHT22;32042;50.916;2.926;2023-04-03T03:57:38;2.60;99.90
46319;DHT22;32042;50.916;2.926;2023-04-03T04:00:04;2.50;99.90
46319;DHT22;32042;50.916;2.926;2023-04-03T04:02:30;2.50;99.90
46319;DHT22;32042;50.916;2.926;2023-04-03T04:04:56;2.50;99.90
46319;DHT22;32042;50.916;2.926;2023-04-03T04:07:22;2.60;99.90
46319;DHT22;32042;50.916;2.926;2023-04-03T04:09:47;2.50;99.90
46319;DHT22;32042;50.916;2.926;2023-04-03T04:12:13;2.50;99.90
46319;DHT22;32042;50.916;2.926;2023-04-03T04:14:39;2.60;99.90
46319;DHT22;32042;50.916;2.926;2023-04-03T04:17:04;2.60;99.90
46319;DHT22;32042;50.916;2.926;2023-04-03T04:19:30;2.60;99.90
46319;DHT22;32042;50.916;2.926;2023-04-03T04:21:56;2.60;99.90
46319;DHT22;32042;50.916;2.926;2023-04-03T04:24:21;2.70;99.90
46319;DHT22;32042;50.916;2.926;2023-04-03T04:26:48;2.60;99.90
46319;DHT22;32042;50.916;2.926;2023-04-03T04:29:14;2.60;99.90
46319;DHT22;32042;50.916;2.926;2023-04-03T04:31:39;2.60;99.90
46319;DHT22;32042;50.916;2.926;2023-04-03T04:34:05;2.60;99.90
46319;DHT22;32042;50.916;2.926;2023-04-03T04:36:31;2.60;99.90
46319;DHT22;32042;50.916;2.926;2023-04-03T04:38:57;2.60;99.90
46319;DHT22;32042;50.916;2.926;2023-04-03T04:41:23;2.60;99.90
46319;DHT22;32042;50.916;2.926;2023-04-03T04:43:50;2.60;99.90
46319;DHT22;32042;50.916;2.926;2023-04-03T04:46:15;2.60;99.90
46319;DHT22;32042;50.916;2.926;2023-04-03T04:48:41;2.60;99.90
46319;DHT22;32042;50.916;2.926;2023-04-03T04:51:07;2.50;99.90
46319;DHT22;32042;50.916;2.926;2023-04-03T04:53:33;2.50;99.90
46319;DHT22;32042;50.916;2.926;2023-04-03T04:55:58;2.50;99.90
46319;DHT22;32042;50.916;2.926;2023-04-03T04:58:24;2.50;99.90
46319;DHT22;32042;50.916;2.926;2023-04-03T05:01:02;2.50;99.90
46319;DHT22;32042;50.916;2.926;2023-04-03T05:03:28;2.50;99.90
46319;DHT22;32042;50.916;2.926;2023-04-03T05:05:54;2.50;99.90
46319;DHT22;32042;50.916;2.926;2023-04-03T05:08:20;2.50;99.90
46319;DHT22;32042;50.916;2.926;2023-04-03T05:10:46;2.50;99.90
46319;DHT22;32042;50.916;2.926;2023-04-03T05:13:12;2.50;99.90
46319;DHT22;32042;50.916;2.926;2023-04-03T05:15:38;2.40;99.90
46319;DHT22;32042;50.916;2.926;2023-04-03T05:18:03;2.40;99.90
46319;DHT22;32042;50.916;2.926;2023-04-03T05:20:31;2.40;99.90
46319;DHT22;32042;50.916;2.926;2023-04-03T05:22:56;2.40;99.90
46319;DHT22;32042;50.916;2.926;2023-04-03T05:25:22;2.40;99.90
46319;DHT22;32042;50.916;2.926;2023-04-03T05:27:48;2.40;99.90
46319;DHT22;32042;50.916;2.926;2023-04-03T05:30:14;2.40;99.90
46319;DHT22;32042;50.916;2.926;2023-04-03T05:32:40;2.40;99.90
46319;DHT22;32042;50.916;2.926;2023-04-03T05:35:07;2.40;99.90
46319;DHT22;32042;50.916;2.926;2023-04-03T05:37:33;2.40;99.90
46319;DHT22;32042;50.916;2.926;2023-04-03T05:39:59;2.40;99.90
46319;DHT22;32042;50.916;2.926;2023-04-03T05:42:25;2.40;99.90
46319;DHT22;32042;50.916;2.926;2023-04-03T05:44:50;2.30;99.90
46319;DHT22;32042;50.916;2.926;2023-04-03T05:47:17;2.30;99.90
46319;DHT22;32042;50.916;2.926;2023-04-03T05:49:43;2.30;99.90
46319;DHT22;32042;50.916;2.926;2023-04-03T05:52:31;2.30;99.90
46319;DHT22;32042;50.916;2.926;2023-04-03T05:54:58;2.30;99.90
46319;DHT22;32042;50.916;2.926;2023-04-03T05:57:24;2.30;99.90
46319;DHT22;32042;50.916;2.926;2023-04-03T05:59:50;2.30;99.90
46319;DHT22;32042;50.916;2.926;2023-04-03T06:02:19;2.40;99.90
46319;DHT22;32042;50.916;2.926;2023-04-03T06:04:45;2.30;99.90
46319;DHT22;32042;50.916;2.926;2023-04-03T06:07:16;2.30;99.90
46319;DHT22;32042;50.916;2.926;2023-04-03T06:09:42;2.30;99.90
46319;DHT22;32042;50.916;2.926;2023-04-03T06:12:08;2.40;99.90
46319;DHT22;32042;50.916;2.926;2023-04-03T06:14:34;2.40;99.90
46319;DHT22;32042;50.916;2.926;2023-04-03T06:17:00;2.40;99.90
46319;DHT22;32042;50.916;2.926;2023-04-03T06:19:27;2.50;99.90
46319;DHT22;32042;50.916;2.926;2023-04-03T06:21:53;2.50;99.90
46319;DHT22;32042;50.916;2.926;2023-04-03T06:24:19;2.60;99.90
46319;DHT22;32042;50.916;2.926;2023-04-03T06:26:47;2.70;99.90
46319;DHT22;32042;50.916;2.926;2023-04-03T06:29:13;2.70;99.90
46319;DHT22;32042;50.916;2.926;2023-04-03T06:31:40;2.80;99.90
46319;DHT22;32042;50.916;2.926;2023-04-03T06:34:06;2.90;99.90
46319;DHT22;32042;50.916;2.926;2023-04-03T06:36:32;2.90;99.90
46319;DHT22;32042;50.916;2.926;2023-04-03T06:38:58;3.10;99.90
46319;DHT22;32042;50.916;2.926;2023-04-03T06:41:24;3.10;99.90
46319;DHT22;32042;50.916;2.926;2023-04-03T06:43:51;3.20;99.90
46319;DHT22;32042;50.916;2.926;2023-04-03T06:46:18;3.30;99.90
46319;DHT22;32042;50.916;2.926;2023-04-03T06:48:44;3.50;99.90
46319;DHT22;32042;50.916;2.926;2023-04-03T06:51:30;3.60;99.90
46319;DHT22;32042;50.916;2.926;2023-04-03T06:53:58;3.80;99.90
46319;DHT22;32042;50.916;2.926;2023-04-03T06:56:24;3.80;99.90
46319;DHT22;32042;50.916;2.926;2023-04-03T06:58:52;3.90;99.90
46319;DHT22;32042;50.916;2.926;2023-04-03T07:01:20;4.10;99.90
46319;DHT22;32042;50.916;2.926;2023-04-03T07:03:47;4.20;99.90
46319;DHT22;32042;50.916;2.926;2023-04-03T07:06:14;4.30;99.90
46319;DHT22;32042;50.916;2.926;2023-04-03T07:08:40;4.40;99.90
46319;DHT22;32042;50.916;2.926;2023-04-03T07:11:06;4.60;99.90
46319;DHT22;32042;50.916;2.926;2023-04-03T07:13:32;4.70;99.90
46319;DHT22;32042;50.916;2.926;2023-04-03T07:15:58;4.80;99.90
46319;DHT22;32042;50.916;2.926;2023-04-03T07:18:24;4.90;99.90
46319;DHT22;32042;50.916;2.926;2023-04-03T07:20:50;5.10;99.90
46319;DHT22;32042;50.916;2.926;2023-04-03T07:23:17;5.20;99.90
46319;DHT22;32042;50.916;2.926;2023-04-03T07:25:44;5.40;99.90
46319;DHT22;32042;50.916;2.926;2023-04-03T07:28:10;5.50;99.90
46319;DHT22;32042;50.916;2.926;2023-04-03T07:30:45;5.70;99.90
46319;DHT22;32042;50.916;2.926;2023-04-03T07:33:13;5.80;99.90
46319;DHT22;32042;50.916;2.926;2023-04-03T07:35:39;6.00;99.90
46319;DHT22;32042;50.916;2.926;2023-04-03T07:38:05;6.10;99.90
46319;DHT22;32042;50.916;2.926;2023-04-03T07:40:32;6.20;99.90
46319;DHT22;32042;50.916;2.926;2023-04-03T07:42:57;6.30;99.90
46319;DHT22;32042;50.916;2.926;2023-04-03T07:45:24;6.50;99.90
46319;DHT22;32042;50.916;2.926;2023-04-03T07:47:50;6.60;99.90
46319;DHT22;32042;50.916;2.926;2023-04-03T07:50:16;6.70;99.90
46319;DHT22;32042;50.916;2.926;2023-04-03T07:52:42;6.80;99.90
46319;DHT22;32042;50.916;2.926;2023-04-03T07:55:08;7.00;99.90
46319;DHT22;32042;50.916;2.926;2023-04-03T07:57:33;7.10;99.90
46319;DHT22;32042;50.916;2.926;2023-04-03T07:59:59;7.20;99.90
46319;DHT22;32042;50.916;2.926;2023-04-03T08:02:25;7.40;99.90
46319;DHT22;32042;50.916;2.926;2023-04-03T08:04:51;7.50;99.90
46319;DHT22;32042;50.916;2.926;2023-04-03T08:07:16;7.60;99.90
46319;DHT22;32042;50.916;2.926;2023-04-03T08:09:42;7.70;99.90
46319;DHT22;32042;50.916;2.926;2023-04-03T08:12:07;7.80;99.90
46319;DHT22;32042;50.916;2.926;2023-04-03T08:14:33;8.00;99.90
46319;DHT22;32042;50.916;2.926;2023-04-03T08:17:01;8.00;99.90
46319;DHT22;32042;50.916;2.926;2023-04-03T08:19:29;8.20;99.90
46319;DHT22;32042;50.916;2.926;2023-04-03T08:21:56;8.20;99.90
46319;DHT22;32042;50.916;2.926;2023-04-03T08:24:24;8.20;99.90
46319;DHT22;32042;50.916;2.926;2023-04-03T08:26:50;8.30;99.90
46319;DHT22;32042;50.916;2.926;2023-04-03T08:29:16;8.40;99.90
46319;DHT22;32042;50.916;2.926;2023-04-03T08:31:42;8.50;99.90
46319;DHT22;32042;50.916;2.926;2023-04-03T08:34:08;8.60;99.90
46319;DHT22;32042;50.916;2.926;2023-04-03T08:36:34;8.70;99.90
46319;DHT22;32042;50.916;2.926;2023-04-03T08:39:00;8.80;99.90
46319;DHT22;32042;50.916;2.926;2023-04-03T08:41:41;8.90;99.90
46319;DHT22;32042;50.916;2.926;2023-04-03T08:44:37;8.90;99.90
46319;DHT22;32042;50.916;2.926;2023-04-03T08:49:56;9.00;99.90
46319;DHT22;32042;50.916;2.926;2023-04-03T08:52:54;9.00;99.90
46319;DHT22;32042;50.916;2.926;2023-04-03T08:55:40;9.10;99.90
46319;DHT22;32042;50.916;2.926;2023-04-03T08:58:20;9.10;99.90
46319;DHT22;32042;50.916;2.926;2023-04-03T09:01:15;9.20;99.90
46319;DHT22;32042;50.916;2.926;2023-04-03T09:03:42;9.20;99.90
46319;DHT22;32042;50.916;2.926;2023-04-03T09:11:25;9.40;99.90
46319;DHT22;32042;50.916;2.926;2023-04-03T09:22:21;9.50;99.90
46319;DHT22;32042;50.916;2.926;2023-04-03T09:25:02;9.50;99.90
46319;DHT22;32042;50.916;2.926;2023-04-03T09:27:29;9.50;99.90
46319;DHT22;32042;50.916;2.926;2023-04-03T09:29:56;9.50;99.90
46319;DHT22;32042;50.916;2.926;2023-04-03T09:32:31;9.50;99.90
46319;DHT22;32042;50.916;2.926;2023-04-03T09:35:34;9.50;99.90
46319;DHT22;32042;50.916;2.926;2023-04-03T09:37:54;9.50;99.90
46319;DHT22;32042;50.916;2.926;2023-04-03T09:40:30;9.60;99.90
46319;DHT22;32042;50.916;2.926;2023-04-03T09:42:59;9.60;99.90
46319;DHT22;32042;50.916;2.926;2023-04-03T09:45:34;9.60;99.90
46319;DHT22;32042;50.916;2.926;2023-04-03T09:48:08;9.60;99.90
46319;DHT22;32042;50.916;2.926;2023-04-03T09:50:35;9.60;99.90
46319;DHT22;32042;50.916;2.926;2023-04-03T09:53:32;9.50;99.90
46319;DHT22;32042;50.916;2.926;2023-04-03T09:55:59;9.30;99.90
46319;DHT22;32042;50.916;2.926;2023-04-03T09:58:29;9.20;99.90
46319;DHT22;32042;50.916;2.926;2023-04-03T10:00:58;9.30;99.90
46319;DHT22;32042;50.916;2.926;2023-04-03T10:03:31;9.40;99.90
46319;DHT22;32042;50.916;2.926;2023-04-03T10:05:58;9.50;99.90
46319;DHT22;32042;50.916;2.926;2023-04-03T10:08:32;9.60;99.90
46319;DHT22;32042;50.916;2.926;2023-04-03T10:11:17;9.60;99.90
46319;DHT22;32042;50.916;2.926;2023-04-03T10:14:01;9.60;99.90
46319;DHT22;32042;50.916;2.926;2023-04-03T10:17:22;9.70;99.90
46319;DHT22;32042;50.916;2.926;2023-04-03T10:34:45;9.80;99.90
46319;DHT22;32042;50.916;2.926;2023-04-03T10:42:53;9.90;99.90
46319;DHT22;32042;50.916;2.926;2023-04-03T10:45:28;10.00;99.90
46319;DHT22;32042;50.916;2.926;2023-04-03T10:58:45;10.00;99.90
46319;DHT22;32042;50.916;2.926;2023-04-03T11:01:24;10.10;99.90
46319;DHT22;32042;50.916;2.926;2023-04-03T11:03:57;10.20;99.90
46319;DHT22;32042;50.916;2.926;2023-04-03T11:06:31;10.20;99.90
46319;DHT22;32042;50.916;2.926;2023-04-03T11:09:16;10.30;99.90
46319;DHT22;32042;50.916;2.926;2023-04-03T11:11:43;10.30;99.90
46319;DHT22;32042;50.916;2.926;2023-04-03T11:14:32;10.30;99.90
46319;DHT22;32042;50.916;2.926;2023-04-03T11:35:45;10.60;99.90
46319;DHT22;32042;50.916;2.926;2023-04-03T11:38:26;10.60;99.90
46319;DHT22;32042;50.916;2.926;2023-04-03T11:40:55;10.60;99.90
46319;DHT22;32042;50.916;2.926;2023-04-03T11:43:24;10.70;99.90
46319;DHT22;32042;50.916;2.926;2023-04-03T11:46:01;10.80;99.90
46319;DHT22;32042;50.916;2.926;2023-04-03T11:51:00;11.00;99.90
46319;DHT22;32042;50.916;2.926;2023-04-03T11:53:33;10.90;99.90
46319;DHT22;32042;50.916;2.926;2023-04-03T11:56:00;10.90;99.90
46319;DHT22;32042;50.916;2.926;2023-04-03T11:58:35;11.10;99.90
46319;DHT22;32042;50.916;2.926;2023-04-03T12:01:07;11.20;99.90
46319;DHT22;32042;50.916;2.926;2023-04-03T12:16:24;11.40;99.90
46319;DHT22;32042;50.916;2.926;2023-04-03T12:24:15;11.40;99.90
46319;DHT22;32042;50.916;2.926;2023-04-03T12:32:10;11.70;99.90
46319;DHT22;32042;50.916;2.926;2023-04-03T12:46:04;12.20;99.90
46319;DHT22;32042;50.916;2.926;2023-04-03T12:48:33;12.10;99.90
46319;DHT22;32042;50.916;2.926;2023-04-03T12:51:03;12.10;99.90
46319;DHT22;32042;50.916;2.926;2023-04-03T12:53:32;11.90;99.90
46319;DHT22;32042;50.916;2.926;2023-04-03T12:56:25;11.90;99.90
46319;DHT22;32042;50.916;2.926;2023-04-03T12:58:53;12.10;99.90
46319;DHT22;32042;50.916;2.926;2023-04-03T13:01:26;12.20;99.90
46319;DHT22;32042;50.916;2.926;2023-04-03T13:03:55;12.20;99.90
46319;DHT22;32042;50.916;2.926;2023-04-03T13:06:24;12.20;99.90
46319;DHT22;32042;50.916;2.926;2023-04-03T13:08:55;12.40;99.90
46319;DHT22;32042;50.916;2.926;2023-04-03T13:11:23;12.40;99.90
46319;DHT22;32042;50.916;2.926;2023-04-03T13:14:01;12.50;99.90
46319;DHT22;32042;50.916;2.926;2023-04-03T13:16:28;12.50;99.90
46319;DHT22;32042;50.916;2.926;2023-04-03T13:18:54;12.40;99.90
46319;DHT22;32042;50.916;2.926;2023-04-03T13:21:29;12.40;99.90
46319;DHT22;32042;50.916;2.926;2023-04-03T13:23:57;12.40;99.90
46319;DHT22;32042;50.916;2.926;2023-04-03T13:26:27;12.30;99.90
46319;DHT22;32042;50.916;2.926;2023-04-03T13:28:58;12.40;99.90
46319;DHT22;32042;50.916;2.926;2023-04-03T13:31:29;12.60;99.90
46319;DHT22;32042;50.916;2.926;2023-04-03T13:34:03;12.70;99.90
46319;DHT22;32042;50.916;2.926;2023-04-03T13:36:34;12.80;99.90
46319;DHT22;32042;50.916;2.926;2023-04-03T13:41:30;12.80;99.90
46319;DHT22;32042;50.916;2.926;2023-04-03T13:43:56;12.70;99.90
46319;DHT22;32042;50.916;2.926;2023-04-03T13:46:25;12.70;99.90
46319;DHT22;32042;50.916;2.926;2023-04-03T13:48:54;12.90;99.90
46319;DHT22;32042;50.916;2.926;2023-04-03T13:51:24;12.90;99.90
46319;DHT22;32042;50.916;2.926;2023-04-03T13:54:00;12.90;99.90
46319;DHT22;32042;50.916;2.926;2023-04-03T13:56:33;12.80;99.90
46319;DHT22;32042;50.916;2.926;2023-04-03T14:01:47;12.50;99.90
46319;DHT22;32042;50.916;2.926;2023-04-03T14:04:16;12.30;99.90
46319;DHT22;32042;50.916;2.926;2023-04-03T14:06:43;12.40;99.90
46319;DHT22;32042;50.916;2.926;2023-04-03T14:09:09;12.50;99.90
46319;DHT22;32042;50.916;2.926;2023-04-03T14:11:35;12.60;99.90
46319;DHT22;32042;50.916;2.926;2023-04-03T14:14:06;12.50;99.90
46319;DHT22;32042;50.916;2.926;2023-04-03T14:16:39;12.30;99.90
46319;DHT22;32042;50.916;2.926;2023-04-03T14:19:06;12.30;99.90
46319;DHT22;32042;50.916;2.926;2023-04-03T14:21:33;12.50;99.90
46319;DHT22;32042;50.916;2.926;2023-04-03T14:23:58;12.60;99.90
46319;DHT22;32042;50.916;2.926;2023-04-03T14:26:24;12.70;99.90
46319;DHT22;32042;50.916;2.926;2023-04-03T14:28:54;12.70;99.90
46319;DHT22;32042;50.916;2.926;2023-04-03T14:31:21;12.70;99.90
46319;DHT22;32042;50.916;2.926;2023-04-03T14:33:48;12.80;99.90
46319;DHT22;32042;50.916;2.926;2023-04-03T14:36:15;12.70;99.90
46319;DHT22;32042;50.916;2.926;2023-04-03T14:38:43;12.60;99.90
46319;DHT22;32042;50.916;2.926;2023-04-03T14:41:12;12.70;99.90
46319;DHT22;32042;50.916;2.926;2023-04-03T14:43:38;12.70;99.90
46319;DHT22;32042;50.916;2.926;2023-04-03T14:46:04;12.60;99.90
46319;DHT22;32042;50.916;2.926;2023-04-03T14:48:30;12.60;99.90
46319;DHT22;32042;50.916;2.926;2023-04-03T14:50:56;12.70;99.90
46319;DHT22;32042;50.916;2.926;2023-04-03T14:53:22;12.60;99.90
46319;DHT22;32042;50.916;2.926;2023-04-03T14:55:52;12.60;99.90
46319;DHT22;32042;50.916;2.926;2023-04-03T14:58:19;12.60;99.90
46319;DHT22;32042;50.916;2.926;2023-04-03T15:00:46;12.60;99.90
46319;DHT22;32042;50.916;2.926;2023-04-03T15:03:17;12.60;99.90
46319;DHT22;32042;50.916;2.926;2023-04-03T15:05:45;12.70;99.90
46319;DHT22;32042;50.916;2.926;2023-04-03T15:08:23;12.80;99.90
46319;DHT22;32042;50.916;2.926;2023-04-03T15:10:50;12.90;99.90
46319;DHT22;32042;50.916;2.926;2023-04-03T15:13:19;12.80;99.90
46319;DHT22;32042;50.916;2.926;2023-04-03T15:15:45;12.90;99.90
46319;DHT22;32042;50.916;2.926;2023-04-03T15:18:33;13.00;99.90
46319;DHT22;32042;50.916;2.926;2023-04-03T15:21:00;13.00;99.90
46319;DHT22;32042;50.916;2.926;2023-04-03T15:23:27;12.90;99.90
46319;DHT22;32042;50.916;2.926;2023-04-03T15:25:55;13.00;99.90
46319;DHT22;32042;50.916;2.926;2023-04-03T15:28:33;12.90;99.90
46319;DHT22;32042;50.916;2.926;2023-04-03T15:31:01;12.70;99.90
46319;DHT22;32042;50.916;2.926;2023-04-03T15:33:27;12.70;99.90
46319;DHT22;32042;50.916;2.926;2023-04-03T15:35:53;12.70;99.90
46319;DHT22;32042;50.916;2.926;2023-04-03T15:38:19;12.80;99.90
46319;DHT22;32042;50.916;2.926;2023-04-03T15:40:45;12.60;99.90
46319;DHT22;32042;50.916;2.926;2023-04-03T15:43:13;12.60;99.90
46319;DHT22;32042;50.916;2.926;2023-04-03T15:45:39;12.80;99.90
46319;DHT22;32042;50.916;2.926;2023-04-03T15:48:06;12.90;99.90
46319;DHT22;32042;50.916;2.926;2023-04-03T15:50:34;13.10;99.90
46319;DHT22;32042;50.916;2.926;2023-04-03T15:53:00;13.00;99.90
46319;DHT22;32042;50.916;2.926;2023-04-03T15:55:29;13.10;99.90
46319;DHT22;32042;50.916;2.926;2023-04-03T15:57:56;12.70;99.90
46319;DHT22;32042;50.916;2.926;2023-04-03T16:00:23;12.70;99.90
46319;DHT22;32042;50.916;2.926;2023-04-03T16:02:53;12.80;99.90
46319;DHT22;32042;50.916;2.926;2023-04-03T16:05:24;13.00;99.90
46319;DHT22;32042;50.916;2.926;2023-04-03T16:07:50;13.20;99.90
46319;DHT22;32042;50.916;2.926;2023-04-03T16:10:17;13.20;99.90
46319;DHT22;32042;50.916;2.926;2023-04-03T16:12:43;12.90;99.90
46319;DHT22;32042;50.916;2.926;2023-04-03T16:15:10;12.70;99.90
46319;DHT22;32042;50.916;2.926;2023-04-03T16:17:37;12.70;99.90
46319;DHT22;32042;50.916;2.926;2023-04-03T16:20:04;12.70;99.90
46319;DHT22;32042;50.916;2.926;2023-04-03T16:22:30;12.70;99.90
46319;DHT22;32042;50.916;2.926;2023-04-03T16:24:56;12.60;99.90
46319;DHT22;32042;50.916;2.926;2023-04-03T16:27:22;12.50;99.90
46319;DHT22;32042;50.916;2.926;2023-04-03T16:29:56;12.30;99.90
46319;DHT22;32042;50.916;2.926;2023-04-03T16:32:22;12.10;99.90
46319;DHT22;32042;50.916;2.926;2023-04-03T16:34:49;11.80;99.90
46319;DHT22;32042;50.916;2.926;2023-04-03T16:37:15;12.00;99.90
46319;DHT22;32042;50.916;2.926;2023-04-03T16:39:42;12.00;99.90
46319;DHT22;32042;50.916;2.926;2023-04-03T16:42:08;11.80;99.90
46319;DHT22;32042;50.916;2.926;2023-04-03T16:44:35;11.70;99.90
46319;DHT22;32042;50.916;2.926;2023-04-03T16:47:01;11.70;99.90
46319;DHT22;32042;50.916;2.926;2023-04-03T16:49:27;11.70;99.90
46319;DHT22;32042;50.916;2.926;2023-04-03T16:51:58;11.80;99.90
46319;DHT22;32042;50.916;2.926;2023-04-03T16:54:24;12.00;99.90
46319;DHT22;32042;50.916;2.926;2023-04-03T16:56:49;12.00;99.90
46319;DHT22;32042;50.916;2.926;2023-04-03T16:59:15;12.20;99.90
46319;DHT22;32042;50.916;2.926;2023-04-03T17:01:41;12.40;99.90
46319;DHT22;32042;50.916;2.926;2023-04-03T17:04:07;12.50;99.90
46319;DHT22;32042;50.916;2.926;2023-04-03T17:06:32;12.70;99.90
46319;DHT22;32042;50.916;2.926;2023-04-03T17:08:58;12.90;99.90
46319;DHT22;32042;50.916;2.926;2023-04-03T17:11:24;13.00;99.90
46319;DHT22;32042;50.916;2.926;2023-04-03T17:13:50;12.90;99.90
46319;DHT22;32042;50.916;2.926;2023-04-03T17:16:16;12.90;99.90
46319;DHT22;32042;50.916;2.926;2023-04-03T17:18:42;12.80;99.90
46319;DHT22;32042;50.916;2.926;2023-04-03T17:21:08;12.70;99.90
46319;DHT22;32042;50.916;2.926;2023-04-03T17:23:35;12.80;99.90
46319;DHT22;32042;50.916;2.926;2023-04-03T17:26:02;12.90;99.90
46319;DHT22;32042;50.916;2.926;2023-04-03T17:28:28;12.90;99.90
46319;DHT22;32042;50.916;2.926;2023-04-03T17:30:55;13.00;99.90
46319;DHT22;32042;50.916;2.926;2023-04-03T17:33:21;12.90;99.90
46319;DHT22;32042;50.916;2.926;2023-04-03T17:35:47;12.70;99.90
46319;DHT22;32042;50.916;2.926;2023-04-03T17:38:13;12.70;99.90
46319;DHT22;32042;50.916;2.926;2023-04-03T17:40:39;12.80;99.90
46319;DHT22;32042;50.916;2.926;2023-04-03T17:43:04;12.80;99.90